Terminal Aerodrome Forecast
Issued by NWS

Home | Current Version | Previous Version | Text Only | Print | Product List | Glossary On
Versions: 1 2 3 4 5 6 7 8 9 10 11 12 13 14 15 16 17 18 19 20 21 22 23 24
904
FTUS43 KDLH 142341
TAFHYR
TAF
KHYR 142341Z 1500/1524 10006KT P6SM VCSH SCT018 SCT027
     FM150300 00000KT P6SM SCT120
     FM150500 00000KT 4SM BR SCT120
     FM150800 00000KT 3/4SM BR BKN003
     FM151300 08004KT P6SM SKC=

USA.gov is the U.S. government's official web portal to all federal, state and local government web resources and services.